<?xml version="1.0" encoding="UTF-8" standalone="no" ?>
<gpx xmlns="http://www.topografix.com/GPX/1/1" xmlns:xsi="http://www.w3.org/2001/XMLSchema-instance" xsi:schemaLocation="http://www.topografix.com/GPX/1/1 http://www.topografix.com/GPX/1/1/gpx.xsd" version="1.1" creator="VisuGPX - https://www.visugpx.com">
  <metadata>
    <name>Circuit du 09-06-2012</name>
    <desc><![CDATA[Circuit du 09-06-2012]]></desc>
  </metadata>
  <wpt lat="45.37588" lon="3.74898">
    <ele>700.59997558594</ele>
    <name><![CDATA[Start]]></name>
  </wpt>
  <wpt lat="45.37908" lon="3.74941">
    <ele>666.13165283203</ele>
    <name><![CDATA[End]]></name>
  </wpt>
  <trk>
    <name><![CDATA[Circuit du 09-06-2012_1]]></name>
    <trkseg>
      <trkpt lat="45.37588" lon="3.74898">
        <ele>700.59997558594</ele>
        <time>2012-06-09T10:14:53Z</time>
      </trkpt>
      <trkpt lat="45.37587" lon="3.74906">
        <ele>702.5</ele>
        <time>2012-06-09T10:14:56Z</time>
      </trkpt>
      <trkpt lat="45.37587" lon="3.74918">
        <ele>701.29998779297</ele>
        <time>2012-06-09T10:15:00Z</time>
      </trkpt>
      <trkpt lat="45.37592" lon="3.74926">
        <ele>698.90002441406</ele>
        <time>2012-06-09T10:15:04Z</time>
      </trkpt>
      <trkpt lat="45.37595" lon="3.74935">
        <ele>694.40002441406</ele>
        <time>2012-06-09T10:15:07Z</time>
      </trkpt>
      <trkpt lat="45.37596" lon="3.74943">
        <ele>695.79998779297</ele>
        <time>2012-06-09T10:15:09Z</time>
      </trkpt>
      <trkpt lat="45.37599" lon="3.74969">
        <ele>694.20001220703</ele>
        <time>2012-06-09T10:15:18Z</time>
      </trkpt>
      <trkpt lat="45.37598" lon="3.74977">
        <ele>696.29998779297</ele>
        <time>2012-06-09T10:15:20Z</time>
      </trkpt>
      <trkpt lat="45.37597" lon="3.74987">
        <ele>698.09997558594</ele>
        <time>2012-06-09T10:15:23Z</time>
      </trkpt>
      <trkpt lat="45.37595" lon="3.74993">
        <ele>698.5</ele>
        <time>2012-06-09T10:15:25Z</time>
      </trkpt>
      <trkpt lat="45.37594" lon="3.75002">
        <ele>699.5</ele>
        <time>2012-06-09T10:15:28Z</time>
      </trkpt>
      <trkpt lat="45.37593" lon="3.75009">
        <ele>701.90002441406</ele>
        <time>2012-06-09T10:15:31Z</time>
      </trkpt>
      <trkpt lat="45.37594" lon="3.75027">
        <ele>701.70001220703</ele>
        <time>2012-06-09T10:15:37Z</time>
      </trkpt>
      <trkpt lat="45.37595" lon="3.75037">
        <ele>704.09997558594</ele>
        <time>2012-06-09T10:15:39Z</time>
      </trkpt>
      <trkpt lat="45.37597" lon="3.75044">
        <ele>704.20001220703</ele>
        <time>2012-06-09T10:15:41Z</time>
      </trkpt>
      <trkpt lat="45.37599" lon="3.75051">
        <ele>703.09997558594</ele>
        <time>2012-06-09T10:15:43Z</time>
      </trkpt>
      <trkpt lat="45.37601" lon="3.75058">
        <ele>702.20001220703</ele>
        <time>2012-06-09T10:15:46Z</time>
      </trkpt>
      <trkpt lat="45.37603" lon="3.75066">
        <ele>701.59997558594</ele>
        <time>2012-06-09T10:15:49Z</time>
      </trkpt>
      <trkpt lat="45.37604" lon="3.75073">
        <ele>704.5</ele>
        <time>2012-06-09T10:15:52Z</time>
      </trkpt>
      <trkpt lat="45.37615" lon="3.7509">
        <ele>701</ele>
        <time>2012-06-09T10:15:59Z</time>
      </trkpt>
      <trkpt lat="45.3762" lon="3.75096">
        <ele>701.79998779297</ele>
        <time>2012-06-09T10:16:02Z</time>
      </trkpt>
      <trkpt lat="45.37625" lon="3.75102">
        <ele>700.59997558594</ele>
        <time>2012-06-09T10:16:06Z</time>
      </trkpt>
      <trkpt lat="45.37627" lon="3.75107">
        <ele>700.29998779297</ele>
        <time>2012-06-09T10:16:08Z</time>
      </trkpt>
      <trkpt lat="45.3763" lon="3.75116">
        <ele>701.70001220703</ele>
        <time>2012-06-09T10:16:11Z</time>
      </trkpt>
      <trkpt lat="45.37634" lon="3.75128">
        <ele>699.59997558594</ele>
        <time>2012-06-09T10:16:15Z</time>
      </trkpt>
      <trkpt lat="45.37637" lon="3.75135">
        <ele>698.90002441406</ele>
        <time>2012-06-09T10:16:17Z</time>
      </trkpt>
      <trkpt lat="45.37641" lon="3.75143">
        <ele>696.59997558594</ele>
        <time>2012-06-09T10:16:21Z</time>
      </trkpt>
      <trkpt lat="45.37643" lon="3.75149">
        <ele>694.5</ele>
        <time>2012-06-09T10:16:24Z</time>
      </trkpt>
      <trkpt lat="45.37645" lon="3.75157">
        <ele>692</ele>
        <time>2012-06-09T10:16:27Z</time>
      </trkpt>
      <trkpt lat="45.37647" lon="3.75166">
        <ele>689.5</ele>
        <time>2012-06-09T10:16:30Z</time>
      </trkpt>
      <trkpt lat="45.37647" lon="3.75173">
        <ele>689.90002441406</ele>
        <time>2012-06-09T10:16:32Z</time>
      </trkpt>
      <trkpt lat="45.37647" lon="3.75194">
        <ele>687.09997558594</ele>
        <time>2012-06-09T10:16:38Z</time>
      </trkpt>
      <trkpt lat="45.37646" lon="3.75206">
        <ele>688.79998779297</ele>
        <time>2012-06-09T10:16:43Z</time>
      </trkpt>
      <trkpt lat="45.37644" lon="3.75212">
        <ele>690.09997558594</ele>
        <time>2012-06-09T10:16:45Z</time>
      </trkpt>
      <trkpt lat="45.37643" lon="3.75219">
        <ele>689.90002441406</ele>
        <time>2012-06-09T10:16:47Z</time>
      </trkpt>
      <trkpt lat="45.37641" lon="3.75228">
        <ele>689.90002441406</ele>
        <time>2012-06-09T10:16:50Z</time>
      </trkpt>
      <trkpt lat="45.3764" lon="3.75241">
        <ele>688.40002441406</ele>
        <time>2012-06-09T10:16:54Z</time>
      </trkpt>
      <trkpt lat="45.37635" lon="3.75247">
        <ele>689</ele>
        <time>2012-06-09T10:16:58Z</time>
      </trkpt>
      <trkpt lat="45.37632" lon="3.75252">
        <ele>689.5</ele>
        <time>2012-06-09T10:17:00Z</time>
      </trkpt>
      <trkpt lat="45.37628" lon="3.75259">
        <ele>692</ele>
        <time>2012-06-09T10:17:03Z</time>
      </trkpt>
      <trkpt lat="45.37623" lon="3.75264">
        <ele>690.09997558594</ele>
        <time>2012-06-09T10:17:06Z</time>
      </trkpt>
      <trkpt lat="45.37618" lon="3.75263">
        <ele>691.09997558594</ele>
        <time>2012-06-09T10:17:08Z</time>
      </trkpt>
      <trkpt lat="45.37613" lon="3.75265">
        <ele>692.09997558594</ele>
        <time>2012-06-09T10:17:11Z</time>
      </trkpt>
      <trkpt lat="45.37607" lon="3.75264">
        <ele>692</ele>
        <time>2012-06-09T10:17:14Z</time>
      </trkpt>
      <trkpt lat="45.37601" lon="3.75261">
        <ele>694.5</ele>
        <time>2012-06-09T10:17:17Z</time>
      </trkpt>
      <trkpt lat="45.37596" lon="3.75259">
        <ele>696.09997558594</ele>
        <time>2012-06-09T10:17:20Z</time>
      </trkpt>
      <trkpt lat="45.37589" lon="3.75257">
        <ele>695.5</ele>
        <time>2012-06-09T10:17:23Z</time>
      </trkpt>
      <trkpt lat="45.37585" lon="3.75255">
        <ele>695.20001220703</ele>
        <time>2012-06-09T10:17:25Z</time>
      </trkpt>
      <trkpt lat="45.37579" lon="3.7525">
        <ele>697.29998779297</ele>
        <time>2012-06-09T10:17:28Z</time>
      </trkpt>
      <trkpt lat="45.37569" lon="3.75243">
        <ele>691.90002441406</ele>
        <time>2012-06-09T10:17:34Z</time>
      </trkpt>
      <trkpt lat="45.37557" lon="3.75241">
        <ele>695.90002441406</ele>
        <time>2012-06-09T10:17:40Z</time>
      </trkpt>
      <trkpt lat="45.37553" lon="3.7524">
        <ele>696.70001220703</ele>
        <time>2012-06-09T10:17:43Z</time>
      </trkpt>
      <trkpt lat="45.37546" lon="3.75239">
        <ele>694.5</ele>
        <time>2012-06-09T10:17:47Z</time>
      </trkpt>
      <trkpt lat="45.37539" lon="3.75239">
        <ele>696.40002441406</ele>
        <time>2012-06-09T10:17:50Z</time>
      </trkpt>
      <trkpt lat="45.37534" lon="3.7524">
        <ele>696.40002441406</ele>
        <time>2012-06-09T10:17:53Z</time>
      </trkpt>
      <trkpt lat="45.37528" lon="3.7524">
        <ele>696.29998779297</ele>
        <time>2012-06-09T10:17:56Z</time>
      </trkpt>
      <trkpt lat="45.37522" lon="3.75241">
        <ele>695.5</ele>
        <time>2012-06-09T10:17:59Z</time>
      </trkpt>
      <trkpt lat="45.37517" lon="3.75241">
        <ele>695.79998779297</ele>
        <time>2012-06-09T10:18:01Z</time>
      </trkpt>
      <trkpt lat="45.37512" lon="3.75241">
        <ele>694.29998779297</ele>
        <time>2012-06-09T10:18:04Z</time>
      </trkpt>
      <trkpt lat="45.37507" lon="3.75241">
        <ele>694.59997558594</ele>
        <time>2012-06-09T10:18:06Z</time>
      </trkpt>
      <trkpt lat="45.37502" lon="3.75242">
        <ele>695.40002441406</ele>
        <time>2012-06-09T10:18:09Z</time>
      </trkpt>
      <trkpt lat="45.37495" lon="3.7524">
        <ele>699.5</ele>
        <time>2012-06-09T10:18:12Z</time>
      </trkpt>
      <trkpt lat="45.3749" lon="3.75242">
        <ele>702.5</ele>
        <time>2012-06-09T10:18:14Z</time>
      </trkpt>
      <trkpt lat="45.37481" lon="3.75238">
        <ele>704.29998779297</ele>
        <time>2012-06-09T10:18:19Z</time>
      </trkpt>
      <trkpt lat="45.37475" lon="3.75236">
        <ele>708.70001220703</ele>
        <time>2012-06-09T10:18:22Z</time>
      </trkpt>
      <trkpt lat="45.37469" lon="3.75236">
        <ele>708.20001220703</ele>
        <time>2012-06-09T10:18:25Z</time>
      </trkpt>
      <trkpt lat="45.37461" lon="3.75231">
        <ele>703.5</ele>
        <time>2012-06-09T10:18:30Z</time>
      </trkpt>
      <trkpt lat="45.37456" lon="3.75234">
        <ele>700.59997558594</ele>
        <time>2012-06-09T10:18:33Z</time>
      </trkpt>
      <trkpt lat="45.3745" lon="3.75233">
        <ele>700.09997558594</ele>
        <time>2012-06-09T10:18:36Z</time>
      </trkpt>
      <trkpt lat="45.37445" lon="3.75231">
        <ele>700.70001220703</ele>
        <time>2012-06-09T10:18:38Z</time>
      </trkpt>
      <trkpt lat="45.37434" lon="3.75221">
        <ele>702.5</ele>
        <time>2012-06-09T10:18:45Z</time>
      </trkpt>
      <trkpt lat="45.37429" lon="3.75217">
        <ele>701.29998779297</ele>
        <time>2012-06-09T10:18:48Z</time>
      </trkpt>
      <trkpt lat="45.37424" lon="3.75215">
        <ele>702.90002441406</ele>
        <time>2012-06-09T10:18:51Z</time>
      </trkpt>
      <trkpt lat="45.37417" lon="3.75211">
        <ele>704.79998779297</ele>
        <time>2012-06-09T10:18:56Z</time>
      </trkpt>
      <trkpt lat="45.37408" lon="3.75202">
        <ele>700.5</ele>
        <time>2012-06-09T10:19:02Z</time>
      </trkpt>
      <trkpt lat="45.37402" lon="3.75198">
        <ele>698.5</ele>
        <time>2012-06-09T10:19:07Z</time>
      </trkpt>
      <trkpt lat="45.37391" lon="3.75197">
        <ele>691.29998779297</ele>
        <time>2012-06-09T10:19:14Z</time>
      </trkpt>
      <trkpt lat="45.37385" lon="3.75196">
        <ele>693.40002441406</ele>
        <time>2012-06-09T10:19:16Z</time>
      </trkpt>
      <trkpt lat="45.3738" lon="3.7519">
        <ele>697.40002441406</ele>
        <time>2012-06-09T10:19:19Z</time>
      </trkpt>
      <trkpt lat="45.37371" lon="3.75186">
        <ele>700.40002441406</ele>
        <time>2012-06-09T10:19:23Z</time>
      </trkpt>
      <trkpt lat="45.37367" lon="3.75184">
        <ele>702</ele>
        <time>2012-06-09T10:19:25Z</time>
      </trkpt>
      <trkpt lat="45.37361" lon="3.75181">
        <ele>703.09997558594</ele>
        <time>2012-06-09T10:19:28Z</time>
      </trkpt>
      <trkpt lat="45.37355" lon="3.75181">
        <ele>706.40002441406</ele>
        <time>2012-06-09T10:19:31Z</time>
      </trkpt>
      <trkpt lat="45.37348" lon="3.75182">
        <ele>707</ele>
        <time>2012-06-09T10:19:34Z</time>
      </trkpt>
      <trkpt lat="45.37343" lon="3.75182">
        <ele>707.09997558594</ele>
        <time>2012-06-09T10:19:37Z</time>
      </trkpt>
      <trkpt lat="45.37337" lon="3.75183">
        <ele>708.29998779297</ele>
        <time>2012-06-09T10:19:40Z</time>
      </trkpt>
      <trkpt lat="45.37326" lon="3.7518">
        <ele>709.59997558594</ele>
        <time>2012-06-09T10:19:45Z</time>
      </trkpt>
      <trkpt lat="45.37322" lon="3.7518">
        <ele>709.20001220703</ele>
        <time>2012-06-09T10:19:47Z</time>
      </trkpt>
      <trkpt lat="45.37315" lon="3.75178">
        <ele>710</ele>
        <time>2012-06-09T10:19:50Z</time>
      </trkpt>
      <trkpt lat="45.37309" lon="3.75176">
        <ele>709.09997558594</ele>
        <time>2012-06-09T10:19:53Z</time>
      </trkpt>
      <trkpt lat="45.37304" lon="3.75174">
        <ele>708.90002441406</ele>
        <time>2012-06-09T10:19:56Z</time>
      </trkpt>
      <trkpt lat="45.37294" lon="3.75165">
        <ele>711.59997558594</ele>
        <time>2012-06-09T10:20:01Z</time>
      </trkpt>
      <trkpt lat="45.37289" lon="3.75159">
        <ele>712.29998779297</ele>
        <time>2012-06-09T10:20:04Z</time>
      </trkpt>
      <trkpt lat="45.37284" lon="3.75156">
        <ele>713</ele>
        <time>2012-06-09T10:20:07Z</time>
      </trkpt>
      <trkpt lat="45.37279" lon="3.75152">
        <ele>714.70001220703</ele>
        <time>2012-06-09T10:20:10Z</time>
      </trkpt>
      <trkpt lat="45.37273" lon="3.75148">
        <ele>716.09997558594</ele>
        <time>2012-06-09T10:20:13Z</time>
      </trkpt>
      <trkpt lat="45.37268" lon="3.75145">
        <ele>716.5</ele>
        <time>2012-06-09T10:20:16Z</time>
      </trkpt>
      <trkpt lat="45.37262" lon="3.75144">
        <ele>715.59997558594</ele>
        <time>2012-06-09T10:20:19Z</time>
      </trkpt>
      <trkpt lat="45.37251" lon="3.75146">
        <ele>712.90002441406</ele>
        <time>2012-06-09T10:20:25Z</time>
      </trkpt>
      <trkpt lat="45.37241" lon="3.75152">
        <ele>714.09997558594</ele>
        <time>2012-06-09T10:20:30Z</time>
      </trkpt>
      <trkpt lat="45.37236" lon="3.75157">
        <ele>716.20001220703</ele>
        <time>2012-06-09T10:20:34Z</time>
      </trkpt>
      <trkpt lat="45.37215" lon="3.75169">
        <ele>717.20001220703</ele>
        <time>2012-06-09T10:20:44Z</time>
      </trkpt>
      <trkpt lat="45.37211" lon="3.75175">
        <ele>716.90002441406</ele>
        <time>2012-06-09T10:20:47Z</time>
      </trkpt>
      <trkpt lat="45.37206" lon="3.75181">
        <ele>716.90002441406</ele>
        <time>2012-06-09T10:20:49Z</time>
      </trkpt>
      <trkpt lat="45.37203" lon="3.75186">
        <ele>717.40002441406</ele>
        <time>2012-06-09T10:20:51Z</time>
      </trkpt>
      <trkpt lat="45.37198" lon="3.75192">
        <ele>718.70001220703</ele>
        <time>2012-06-09T10:20:54Z</time>
      </trkpt>
      <trkpt lat="45.37187" lon="3.75205">
        <ele>720.90002441406</ele>
        <time>2012-06-09T10:21:01Z</time>
      </trkpt>
      <trkpt lat="45.37182" lon="3.75209">
        <ele>721.20001220703</ele>
        <time>2012-06-09T10:21:04Z</time>
      </trkpt>
      <trkpt lat="45.37165" lon="3.75226">
        <ele>716.70001220703</ele>
        <time>2012-06-09T10:21:14Z</time>
      </trkpt>
      <trkpt lat="45.37162" lon="3.75232">
        <ele>718.79998779297</ele>
        <time>2012-06-09T10:21:18Z</time>
      </trkpt>
      <trkpt lat="45.37164" lon="3.75239">
        <ele>722.29998779297</ele>
        <time>2012-06-09T10:21:21Z</time>
      </trkpt>
      <trkpt lat="45.37168" lon="3.75242">
        <ele>722.59997558594</ele>
        <time>2012-06-09T10:21:24Z</time>
      </trkpt>
      <trkpt lat="45.37174" lon="3.75251">
        <ele>718.5</ele>
        <time>2012-06-09T10:21:29Z</time>
      </trkpt>
      <trkpt lat="45.37177" lon="3.75257">
        <ele>719.20001220703</ele>
        <time>2012-06-09T10:21:32Z</time>
      </trkpt>
      <trkpt lat="45.37183" lon="3.75267">
        <ele>719.09997558594</ele>
        <time>2012-06-09T10:21:36Z</time>
      </trkpt>
      <trkpt lat="45.3719" lon="3.75279">
        <ele>718.09997558594</ele>
        <time>2012-06-09T10:21:42Z</time>
      </trkpt>
      <trkpt lat="45.37196" lon="3.75282">
        <ele>715.5</ele>
        <time>2012-06-09T10:21:46Z</time>
      </trkpt>
      <trkpt lat="45.37203" lon="3.75282">
        <ele>715.79998779297</ele>
        <time>2012-06-09T10:21:49Z</time>
      </trkpt>
      <trkpt lat="45.37207" lon="3.7528">
        <ele>715.79998779297</ele>
        <time>2012-06-09T10:21:51Z</time>
      </trkpt>
      <trkpt lat="45.37212" lon="3.7528">
        <ele>715.09997558594</ele>
        <time>2012-06-09T10:21:53Z</time>
      </trkpt>
      <trkpt lat="45.37217" lon="3.75278">
        <ele>714.90002441406</ele>
        <time>2012-06-09T10:21:55Z</time>
      </trkpt>
      <trkpt lat="45.37223" lon="3.75276">
        <ele>714.09997558594</ele>
        <time>2012-06-09T10:21:58Z</time>
      </trkpt>
      <trkpt lat="45.37228" lon="3.75275">
        <ele>711.20001220703</ele>
        <time>2012-06-09T10:22:00Z</time>
      </trkpt>
      <trkpt lat="45.3724" lon="3.75272">
        <ele>712.20001220703</ele>
        <time>2012-06-09T10:22:06Z</time>
      </trkpt>
      <trkpt lat="45.37246" lon="3.75271">
        <ele>712.90002441406</ele>
        <time>2012-06-09T10:22:09Z</time>
      </trkpt>
      <trkpt lat="45.37253" lon="3.75269">
        <ele>714</ele>
        <time>2012-06-09T10:22:12Z</time>
      </trkpt>
      <trkpt lat="45.3726" lon="3.75268">
        <ele>715.09997558594</ele>
        <time>2012-06-09T10:22:15Z</time>
      </trkpt>
      <trkpt lat="45.37265" lon="3.75267">
        <ele>715.40002441406</ele>
        <time>2012-06-09T10:22:17Z</time>
      </trkpt>
      <trkpt lat="45.3727" lon="3.75267">
        <ele>715.59997558594</ele>
        <time>2012-06-09T10:22:20Z</time>
      </trkpt>
      <trkpt lat="45.37275" lon="3.75268">
        <ele>715.70001220703</ele>
        <time>2012-06-09T10:22:22Z</time>
      </trkpt>
      <trkpt lat="45.37281" lon="3.75269">
        <ele>715.20001220703</ele>
        <time>2012-06-09T10:22:25Z</time>
      </trkpt>
      <trkpt lat="45.37287" lon="3.7527">
        <ele>712.79998779297</ele>
        <time>2012-06-09T10:22:29Z</time>
      </trkpt>
      <trkpt lat="45.37294" lon="3.7527">
        <ele>713.40002441406</ele>
        <time>2012-06-09T10:22:32Z</time>
      </trkpt>
      <trkpt lat="45.373" lon="3.75271">
        <ele>712.09997558594</ele>
        <time>2012-06-09T10:22:35Z</time>
      </trkpt>
      <trkpt lat="45.37317" lon="3.75275">
        <ele>710.70001220703</ele>
        <time>2012-06-09T10:22:43Z</time>
      </trkpt>
      <trkpt lat="45.37322" lon="3.75276">
        <ele>710.20001220703</ele>
        <time>2012-06-09T10:22:45Z</time>
      </trkpt>
      <trkpt lat="45.37327" lon="3.75277">
        <ele>709.70001220703</ele>
        <time>2012-06-09T10:22:47Z</time>
      </trkpt>
      <trkpt lat="45.37334" lon="3.75276">
        <ele>710</ele>
        <time>2012-06-09T10:22:50Z</time>
      </trkpt>
      <trkpt lat="45.3734" lon="3.75276">
        <ele>707.70001220703</ele>
        <time>2012-06-09T10:22:54Z</time>
      </trkpt>
      <trkpt lat="45.3735" lon="3.75284">
        <ele>710.5</ele>
        <time>2012-06-09T10:23:00Z</time>
      </trkpt>
      <trkpt lat="45.37354" lon="3.75288">
        <ele>711.29998779297</ele>
        <time>2012-06-09T10:23:02Z</time>
      </trkpt>
      <trkpt lat="45.37369" lon="3.753">
        <ele>710.40002441406</ele>
        <time>2012-06-09T10:23:09Z</time>
      </trkpt>
      <trkpt lat="45.37373" lon="3.75303">
        <ele>708.40002441406</ele>
        <time>2012-06-09T10:23:13Z</time>
      </trkpt>
      <trkpt lat="45.37378" lon="3.75302">
        <ele>707.09997558594</ele>
        <time>2012-06-09T10:23:15Z</time>
      </trkpt>
      <trkpt lat="45.37383" lon="3.75304">
        <ele>707.20001220703</ele>
        <time>2012-06-09T10:23:17Z</time>
      </trkpt>
      <trkpt lat="45.37389" lon="3.75304">
        <ele>707.70001220703</ele>
        <time>2012-06-09T10:23:20Z</time>
      </trkpt>
      <trkpt lat="45.37393" lon="3.75306">
        <ele>708.09997558594</ele>
        <time>2012-06-09T10:23:22Z</time>
      </trkpt>
      <trkpt lat="45.37398" lon="3.75309">
        <ele>706.20001220703</ele>
        <time>2012-06-09T10:23:25Z</time>
      </trkpt>
      <trkpt lat="45.37403" lon="3.75313">
        <ele>707.40002441406</ele>
        <time>2012-06-09T10:23:28Z</time>
      </trkpt>
      <trkpt lat="45.37408" lon="3.75318">
        <ele>704.90002441406</ele>
        <time>2012-06-09T10:23:32Z</time>
      </trkpt>
      <trkpt lat="45.37412" lon="3.75321">
        <ele>704.90002441406</ele>
        <time>2012-06-09T10:23:35Z</time>
      </trkpt>
      <trkpt lat="45.37417" lon="3.75324">
        <ele>704</ele>
        <time>2012-06-09T10:23:38Z</time>
      </trkpt>
      <trkpt lat="45.37422" lon="3.75327">
        <ele>703.5</ele>
        <time>2012-06-09T10:23:41Z</time>
      </trkpt>
      <trkpt lat="45.37427" lon="3.75329">
        <ele>703.5</ele>
        <time>2012-06-09T10:23:44Z</time>
      </trkpt>
      <trkpt lat="45.37432" lon="3.75331">
        <ele>702.5</ele>
        <time>2012-06-09T10:23:47Z</time>
      </trkpt>
      <trkpt lat="45.37438" lon="3.75336">
        <ele>702.59997558594</ele>
        <time>2012-06-09T10:23:51Z</time>
      </trkpt>
      <trkpt lat="45.37444" lon="3.7534">
        <ele>702</ele>
        <time>2012-06-09T10:23:55Z</time>
      </trkpt>
      <trkpt lat="45.37449" lon="3.75344">
        <ele>700.70001220703</ele>
        <time>2012-06-09T10:23:59Z</time>
      </trkpt>
      <trkpt lat="45.37455" lon="3.75348">
        <ele>700.79998779297</ele>
        <time>2012-06-09T10:24:03Z</time>
      </trkpt>
      <trkpt lat="45.37459" lon="3.75351">
        <ele>700.20001220703</ele>
        <time>2012-06-09T10:24:06Z</time>
      </trkpt>
      <trkpt lat="45.37464" lon="3.75354">
        <ele>699.90002441406</ele>
        <time>2012-06-09T10:24:09Z</time>
      </trkpt>
      <trkpt lat="45.37469" lon="3.75356">
        <ele>699.79998779297</ele>
        <time>2012-06-09T10:24:13Z</time>
      </trkpt>
      <trkpt lat="45.37474" lon="3.75359">
        <ele>699.09997558594</ele>
        <time>2012-06-09T10:24:16Z</time>
      </trkpt>
      <trkpt lat="45.37479" lon="3.75361">
        <ele>698.70001220703</ele>
        <time>2012-06-09T10:24:20Z</time>
      </trkpt>
      <trkpt lat="45.37484" lon="3.75363">
        <ele>698.5</ele>
        <time>2012-06-09T10:24:23Z</time>
      </trkpt>
      <trkpt lat="45.37489" lon="3.75366">
        <ele>698.20001220703</ele>
        <time>2012-06-09T10:24:27Z</time>
      </trkpt>
      <trkpt lat="45.37493" lon="3.75368">
        <ele>698.59997558594</ele>
        <time>2012-06-09T10:24:30Z</time>
      </trkpt>
      <trkpt lat="45.37498" lon="3.75369">
        <ele>698.40002441406</ele>
        <time>2012-06-09T10:24:33Z</time>
      </trkpt>
      <trkpt lat="45.37502" lon="3.75371">
        <ele>697.29998779297</ele>
        <time>2012-06-09T10:24:36Z</time>
      </trkpt>
      <trkpt lat="45.37507" lon="3.75373">
        <ele>697.40002441406</ele>
        <time>2012-06-09T10:24:39Z</time>
      </trkpt>
      <trkpt lat="45.37512" lon="3.75375">
        <ele>697</ele>
        <time>2012-06-09T10:24:42Z</time>
      </trkpt>
      <trkpt lat="45.37516" lon="3.75377">
        <ele>696.90002441406</ele>
        <time>2012-06-09T10:24:45Z</time>
      </trkpt>
      <trkpt lat="45.37522" lon="3.7538">
        <ele>696.5</ele>
        <time>2012-06-09T10:24:49Z</time>
      </trkpt>
      <trkpt lat="45.37526" lon="3.75381">
        <ele>696.5</ele>
        <time>2012-06-09T10:24:52Z</time>
      </trkpt>
      <trkpt lat="45.37532" lon="3.75383">
        <ele>695.20001220703</ele>
        <time>2012-06-09T10:24:55Z</time>
      </trkpt>
      <trkpt lat="45.37537" lon="3.75384">
        <ele>694.90002441406</ele>
        <time>2012-06-09T10:24:58Z</time>
      </trkpt>
      <trkpt lat="45.37542" lon="3.75385">
        <ele>695</ele>
        <time>2012-06-09T10:25:01Z</time>
      </trkpt>
      <trkpt lat="45.37547" lon="3.75387">
        <ele>695.29998779297</ele>
        <time>2012-06-09T10:25:04Z</time>
      </trkpt>
      <trkpt lat="45.37553" lon="3.75387">
        <ele>694.90002441406</ele>
        <time>2012-06-09T10:25:07Z</time>
      </trkpt>
      <trkpt lat="45.37558" lon="3.75386">
        <ele>695.09997558594</ele>
        <time>2012-06-09T10:25:10Z</time>
      </trkpt>
      <trkpt lat="45.37562" lon="3.75388">
        <ele>694.40002441406</ele>
        <time>2012-06-09T10:25:12Z</time>
      </trkpt>
      <trkpt lat="45.37568" lon="3.75388">
        <ele>693.29998779297</ele>
        <time>2012-06-09T10:25:15Z</time>
      </trkpt>
      <trkpt lat="45.37574" lon="3.75388">
        <ele>693</ele>
        <time>2012-06-09T10:25:18Z</time>
      </trkpt>
      <trkpt lat="45.37581" lon="3.75388">
        <ele>691.29998779297</ele>
        <time>2012-06-09T10:25:21Z</time>
      </trkpt>
      <trkpt lat="45.37589" lon="3.75389">
        <ele>691.59997558594</ele>
        <time>2012-06-09T10:25:25Z</time>
      </trkpt>
      <trkpt lat="45.37595" lon="3.75387">
        <ele>689.79998779297</ele>
        <time>2012-06-09T10:25:28Z</time>
      </trkpt>
      <trkpt lat="45.37608" lon="3.75388">
        <ele>688.70001220703</ele>
        <time>2012-06-09T10:25:34Z</time>
      </trkpt>
      <trkpt lat="45.37612" lon="3.75391">
        <ele>688.5</ele>
        <time>2012-06-09T10:25:36Z</time>
      </trkpt>
      <trkpt lat="45.37617" lon="3.7539">
        <ele>686.20001220703</ele>
        <time>2012-06-09T10:25:39Z</time>
      </trkpt>
      <trkpt lat="45.37622" lon="3.75388">
        <ele>686.09997558594</ele>
        <time>2012-06-09T10:25:41Z</time>
      </trkpt>
      <trkpt lat="45.37628" lon="3.75387">
        <ele>682.09997558594</ele>
        <time>2012-06-09T10:25:44Z</time>
      </trkpt>
      <trkpt lat="45.37632" lon="3.75388">
        <ele>680.29998779297</ele>
        <time>2012-06-09T10:25:46Z</time>
      </trkpt>
      <trkpt lat="45.37642" lon="3.75384">
        <ele>681.40002441406</ele>
        <time>2012-06-09T10:25:51Z</time>
      </trkpt>
      <trkpt lat="45.37654" lon="3.75378">
        <ele>687.70001220703</ele>
        <time>2012-06-09T10:25:55Z</time>
      </trkpt>
      <trkpt lat="45.37663" lon="3.75378">
        <ele>689.29998779297</ele>
        <time>2012-06-09T10:25:59Z</time>
      </trkpt>
      <trkpt lat="45.37668" lon="3.75374">
        <ele>685</ele>
        <time>2012-06-09T10:26:03Z</time>
      </trkpt>
      <trkpt lat="45.37673" lon="3.75372">
        <ele>683.40002441406</ele>
        <time>2012-06-09T10:26:06Z</time>
      </trkpt>
      <trkpt lat="45.37679" lon="3.7537">
        <ele>683.59997558594</ele>
        <time>2012-06-09T10:26:09Z</time>
      </trkpt>
      <trkpt lat="45.37684" lon="3.75368">
        <ele>682.20001220703</ele>
        <time>2012-06-09T10:26:12Z</time>
      </trkpt>
      <trkpt lat="45.37688" lon="3.75365">
        <ele>682.70001220703</ele>
        <time>2012-06-09T10:26:15Z</time>
      </trkpt>
      <trkpt lat="45.37693" lon="3.75362">
        <ele>682.5</ele>
        <time>2012-06-09T10:26:18Z</time>
      </trkpt>
      <trkpt lat="45.37697" lon="3.7536">
        <ele>681</ele>
        <time>2012-06-09T10:26:21Z</time>
      </trkpt>
      <trkpt lat="45.37702" lon="3.75357">
        <ele>680.79998779297</ele>
        <time>2012-06-09T10:26:24Z</time>
      </trkpt>
      <trkpt lat="45.37707" lon="3.75354">
        <ele>680.70001220703</ele>
        <time>2012-06-09T10:26:27Z</time>
      </trkpt>
      <trkpt lat="45.37715" lon="3.75349">
        <ele>679.70001220703</ele>
        <time>2012-06-09T10:26:32Z</time>
      </trkpt>
      <trkpt lat="45.3772" lon="3.75345">
        <ele>678.79998779297</ele>
        <time>2012-06-09T10:26:35Z</time>
      </trkpt>
      <trkpt lat="45.37724" lon="3.75343">
        <ele>678.20001220703</ele>
        <time>2012-06-09T10:26:38Z</time>
      </trkpt>
      <trkpt lat="45.37728" lon="3.75339">
        <ele>678.70001220703</ele>
        <time>2012-06-09T10:26:41Z</time>
      </trkpt>
      <trkpt lat="45.37733" lon="3.75336">
        <ele>678.5</ele>
        <time>2012-06-09T10:26:44Z</time>
      </trkpt>
      <trkpt lat="45.37738" lon="3.75332">
        <ele>678</ele>
        <time>2012-06-09T10:26:47Z</time>
      </trkpt>
      <trkpt lat="45.37742" lon="3.75329">
        <ele>678.29998779297</ele>
        <time>2012-06-09T10:26:50Z</time>
      </trkpt>
      <trkpt lat="45.37747" lon="3.75325">
        <ele>677.90002441406</ele>
        <time>2012-06-09T10:26:53Z</time>
      </trkpt>
      <trkpt lat="45.37752" lon="3.75321">
        <ele>677.59997558594</ele>
        <time>2012-06-09T10:26:56Z</time>
      </trkpt>
      <trkpt lat="45.37757" lon="3.75317">
        <ele>676.40002441406</ele>
        <time>2012-06-09T10:26:59Z</time>
      </trkpt>
      <trkpt lat="45.37761" lon="3.75313">
        <ele>675.40002441406</ele>
        <time>2012-06-09T10:27:02Z</time>
      </trkpt>
      <trkpt lat="45.37766" lon="3.75307">
        <ele>674.70001220703</ele>
        <time>2012-06-09T10:27:05Z</time>
      </trkpt>
      <trkpt lat="45.3777" lon="3.75303">
        <ele>674.29998779297</ele>
        <time>2012-06-09T10:27:08Z</time>
      </trkpt>
      <trkpt lat="45.37775" lon="3.75298">
        <ele>673.09997558594</ele>
        <time>2012-06-09T10:27:11Z</time>
      </trkpt>
      <trkpt lat="45.37786" lon="3.75285">
        <ele>674.40002441406</ele>
        <time>2012-06-09T10:27:18Z</time>
      </trkpt>
      <trkpt lat="45.37791" lon="3.75279">
        <ele>674.90002441406</ele>
        <time>2012-06-09T10:27:21Z</time>
      </trkpt>
      <trkpt lat="45.37799" lon="3.75268">
        <ele>674.79998779297</ele>
        <time>2012-06-09T10:27:25Z</time>
      </trkpt>
      <trkpt lat="45.37804" lon="3.75262">
        <ele>673.79998779297</ele>
        <time>2012-06-09T10:27:28Z</time>
      </trkpt>
      <trkpt lat="45.37809" lon="3.75257">
        <ele>672.79998779297</ele>
        <time>2012-06-09T10:27:31Z</time>
      </trkpt>
      <trkpt lat="45.37812" lon="3.75251">
        <ele>672.20001220703</ele>
        <time>2012-06-09T10:27:34Z</time>
      </trkpt>
      <trkpt lat="45.37816" lon="3.75244">
        <ele>673.5</ele>
        <time>2012-06-09T10:27:37Z</time>
      </trkpt>
      <trkpt lat="45.3782" lon="3.75238">
        <ele>673</ele>
        <time>2012-06-09T10:27:40Z</time>
      </trkpt>
      <trkpt lat="45.37824" lon="3.75232">
        <ele>672.70001220703</ele>
        <time>2012-06-09T10:27:43Z</time>
      </trkpt>
      <trkpt lat="45.37827" lon="3.75227">
        <ele>672.29998779297</ele>
        <time>2012-06-09T10:27:45Z</time>
      </trkpt>
      <trkpt lat="45.37831" lon="3.7522">
        <ele>672</ele>
        <time>2012-06-09T10:27:48Z</time>
      </trkpt>
      <trkpt lat="45.37836" lon="3.75214">
        <ele>671.79998779297</ele>
        <time>2012-06-09T10:27:51Z</time>
      </trkpt>
      <trkpt lat="45.37839" lon="3.75209">
        <ele>671.59997558594</ele>
        <time>2012-06-09T10:27:53Z</time>
      </trkpt>
      <trkpt lat="45.37843" lon="3.75205">
        <ele>671.09997558594</ele>
        <time>2012-06-09T10:27:55Z</time>
      </trkpt>
      <trkpt lat="45.37846" lon="3.75198">
        <ele>670.29998779297</ele>
        <time>2012-06-09T10:27:58Z</time>
      </trkpt>
      <trkpt lat="45.3785" lon="3.7519">
        <ele>669.5</ele>
        <time>2012-06-09T10:28:01Z</time>
      </trkpt>
      <trkpt lat="45.37854" lon="3.75183">
        <ele>669.40002441406</ele>
        <time>2012-06-09T10:28:04Z</time>
      </trkpt>
      <trkpt lat="45.37859" lon="3.75175">
        <ele>670.09997558594</ele>
        <time>2012-06-09T10:28:08Z</time>
      </trkpt>
      <trkpt lat="45.37866" lon="3.75164">
        <ele>670.29998779297</ele>
        <time>2012-06-09T10:28:14Z</time>
      </trkpt>
      <trkpt lat="45.37872" lon="3.75156">
        <ele>671.79998779297</ele>
        <time>2012-06-09T10:28:18Z</time>
      </trkpt>
      <trkpt lat="45.37876" lon="3.7515">
        <ele>672.20001220703</ele>
        <time>2012-06-09T10:28:21Z</time>
      </trkpt>
      <trkpt lat="45.37879" lon="3.75143">
        <ele>671.70001220703</ele>
        <time>2012-06-09T10:28:24Z</time>
      </trkpt>
      <trkpt lat="45.37884" lon="3.75135">
        <ele>671.90002441406</ele>
        <time>2012-06-09T10:28:27Z</time>
      </trkpt>
      <trkpt lat="45.37888" lon="3.75129">
        <ele>671.40002441406</ele>
        <time>2012-06-09T10:28:30Z</time>
      </trkpt>
      <trkpt lat="45.37891" lon="3.75123">
        <ele>672.5</ele>
        <time>2012-06-09T10:28:32Z</time>
      </trkpt>
      <trkpt lat="45.37894" lon="3.75119">
        <ele>671</ele>
        <time>2012-06-09T10:28:34Z</time>
      </trkpt>
      <trkpt lat="45.37898" lon="3.75114">
        <ele>672.5</ele>
        <time>2012-06-09T10:28:36Z</time>
      </trkpt>
      <trkpt lat="45.37903" lon="3.75108">
        <ele>671.70001220703</ele>
        <time>2012-06-09T10:28:39Z</time>
      </trkpt>
      <trkpt lat="45.37906" lon="3.75103">
        <ele>671.40002441406</ele>
        <time>2012-06-09T10:28:41Z</time>
      </trkpt>
      <trkpt lat="45.37909" lon="3.75098">
        <ele>671.59997558594</ele>
        <time>2012-06-09T10:28:43Z</time>
      </trkpt>
      <trkpt lat="45.37912" lon="3.75093">
        <ele>671.59997558594</ele>
        <time>2012-06-09T10:28:45Z</time>
      </trkpt>
      <trkpt lat="45.37914" lon="3.75087">
        <ele>670.20001220703</ele>
        <time>2012-06-09T10:28:47Z</time>
      </trkpt>
      <trkpt lat="45.37919" lon="3.75081">
        <ele>669.70001220703</ele>
        <time>2012-06-09T10:28:50Z</time>
      </trkpt>
      <trkpt lat="45.37923" lon="3.75075">
        <ele>669.5</ele>
        <time>2012-06-09T10:28:52Z</time>
      </trkpt>
      <trkpt lat="45.37926" lon="3.7507">
        <ele>669</ele>
        <time>2012-06-09T10:28:54Z</time>
      </trkpt>
      <trkpt lat="45.3793" lon="3.75063">
        <ele>668.40002441406</ele>
        <time>2012-06-09T10:28:57Z</time>
      </trkpt>
      <trkpt lat="45.37933" lon="3.75055">
        <ele>666.20001220703</ele>
        <time>2012-06-09T10:29:00Z</time>
      </trkpt>
      <trkpt lat="45.37937" lon="3.75048">
        <ele>666.29998779297</ele>
        <time>2012-06-09T10:29:03Z</time>
      </trkpt>
      <trkpt lat="45.3794" lon="3.75042">
        <ele>665.90002441406</ele>
        <time>2012-06-09T10:29:05Z</time>
      </trkpt>
      <trkpt lat="45.37944" lon="3.75038">
        <ele>666.70001220703</ele>
        <time>2012-06-09T10:29:07Z</time>
      </trkpt>
      <trkpt lat="45.37948" lon="3.75033">
        <ele>666.5</ele>
        <time>2012-06-09T10:29:09Z</time>
      </trkpt>
      <trkpt lat="45.37952" lon="3.75028">
        <ele>665.79998779297</ele>
        <time>2012-06-09T10:29:11Z</time>
      </trkpt>
      <trkpt lat="45.37956" lon="3.75022">
        <ele>664.40002441406</ele>
        <time>2012-06-09T10:29:14Z</time>
      </trkpt>
      <trkpt lat="45.3796" lon="3.75014">
        <ele>665.20001220703</ele>
        <time>2012-06-09T10:29:17Z</time>
      </trkpt>
      <trkpt lat="45.37964" lon="3.75007">
        <ele>665.40002441406</ele>
        <time>2012-06-09T10:29:20Z</time>
      </trkpt>
      <trkpt lat="45.37969" lon="3.75">
        <ele>664.79998779297</ele>
        <time>2012-06-09T10:29:23Z</time>
      </trkpt>
      <trkpt lat="45.37973" lon="3.74993">
        <ele>665.09997558594</ele>
        <time>2012-06-09T10:29:26Z</time>
      </trkpt>
      <trkpt lat="45.37977" lon="3.74986">
        <ele>665.20001220703</ele>
        <time>2012-06-09T10:29:29Z</time>
      </trkpt>
      <trkpt lat="45.37981" lon="3.74978">
        <ele>665.29998779297</ele>
        <time>2012-06-09T10:29:32Z</time>
      </trkpt>
      <trkpt lat="45.37985" lon="3.74972">
        <ele>665.59997558594</ele>
        <time>2012-06-09T10:29:35Z</time>
      </trkpt>
      <trkpt lat="45.37988" lon="3.74964">
        <ele>664.79998779297</ele>
        <time>2012-06-09T10:29:38Z</time>
      </trkpt>
      <trkpt lat="45.37991" lon="3.74958">
        <ele>665</ele>
        <time>2012-06-09T10:29:40Z</time>
      </trkpt>
      <trkpt lat="45.37995" lon="3.74953">
        <ele>665.40002441406</ele>
        <time>2012-06-09T10:29:42Z</time>
      </trkpt>
      <trkpt lat="45.37999" lon="3.74947">
        <ele>665</ele>
        <time>2012-06-09T10:29:45Z</time>
      </trkpt>
      <trkpt lat="45.38006" lon="3.7494">
        <ele>666.90002441406</ele>
        <time>2012-06-09T10:29:48Z</time>
      </trkpt>
      <trkpt lat="45.38016" lon="3.74922">
        <ele>665.40002441406</ele>
        <time>2012-06-09T10:29:56Z</time>
      </trkpt>
      <trkpt lat="45.38029" lon="3.749">
        <ele>665.40002441406</ele>
        <time>2012-06-09T10:30:05Z</time>
      </trkpt>
      <trkpt lat="45.38032" lon="3.74891">
        <ele>663.79998779297</ele>
        <time>2012-06-09T10:30:08Z</time>
      </trkpt>
      <trkpt lat="45.38038" lon="3.7488">
        <ele>665</ele>
        <time>2012-06-09T10:30:13Z</time>
      </trkpt>
      <trkpt lat="45.3804" lon="3.74871">
        <ele>665</ele>
        <time>2012-06-09T10:30:16Z</time>
      </trkpt>
      <trkpt lat="45.38033" lon="3.74862">
        <ele>664.59997558594</ele>
        <time>2012-06-09T10:30:20Z</time>
      </trkpt>
      <trkpt lat="45.38029" lon="3.74859">
        <ele>666.20001220703</ele>
        <time>2012-06-09T10:30:22Z</time>
      </trkpt>
      <trkpt lat="45.38021" lon="3.74858">
        <ele>669</ele>
        <time>2012-06-09T10:30:25Z</time>
      </trkpt>
      <trkpt lat="45.38017" lon="3.7486">
        <ele>670.09997558594</ele>
        <time>2012-06-09T10:30:27Z</time>
      </trkpt>
      <trkpt lat="45.37985" lon="3.74867">
        <ele>668.09997558594</ele>
        <time>2012-06-09T10:30:45Z</time>
      </trkpt>
      <trkpt lat="45.3798" lon="3.74868">
        <ele>669</ele>
        <time>2012-06-09T10:30:47Z</time>
      </trkpt>
      <trkpt lat="45.37967" lon="3.74865">
        <ele>669.70001220703</ele>
        <time>2012-06-09T10:30:52Z</time>
      </trkpt>
      <trkpt lat="45.3796" lon="3.7487">
        <ele>668.5</ele>
        <time>2012-06-09T10:30:56Z</time>
      </trkpt>
      <trkpt lat="45.37957" lon="3.74874">
        <ele>670</ele>
        <time>2012-06-09T10:30:58Z</time>
      </trkpt>
      <trkpt lat="45.37952" lon="3.74881">
        <ele>671.70001220703</ele>
        <time>2012-06-09T10:31:01Z</time>
      </trkpt>
      <trkpt lat="45.3794" lon="3.74903">
        <ele>669.29998779297</ele>
        <time>2012-06-09T10:31:09Z</time>
      </trkpt>
      <trkpt lat="45.37937" lon="3.74909">
        <ele>668.29998779297</ele>
        <time>2012-06-09T10:31:12Z</time>
      </trkpt>
      <trkpt lat="45.37932" lon="3.74911">
        <ele>670.79998779297</ele>
        <time>2012-06-09T10:31:14Z</time>
      </trkpt>
      <trkpt lat="45.37929" lon="3.74916">
        <ele>672.70001220703</ele>
        <time>2012-06-09T10:31:16Z</time>
      </trkpt>
      <trkpt lat="45.37924" lon="3.7492">
        <ele>672.09997558594</ele>
        <time>2012-06-09T10:31:18Z</time>
      </trkpt>
      <trkpt lat="45.3792" lon="3.74924">
        <ele>670.90002441406</ele>
        <time>2012-06-09T10:31:21Z</time>
      </trkpt>
      <trkpt lat="45.37915" lon="3.74928">
        <ele>671.29998779297</ele>
        <time>2012-06-09T10:31:23Z</time>
      </trkpt>
      <trkpt lat="45.37911" lon="3.74934">
        <ele>671.40002441406</ele>
        <time>2012-06-09T10:31:26Z</time>
      </trkpt>
      <trkpt lat="45.37908" lon="3.74941">
        <ele>666.13165283203</ele>
        <time>2012-06-09T10:31:27Z</time>
      </trkpt>
    </trkseg>
  </trk>
</gpx>